Time;durP1;ratioP1;P1;durP2;ratioP2;P2;SDS_P1;SDS_P2;PMS_P1;PMS_P2;Temp;Humidity;BMP_temperature;BMP_pressure;BME280_temperature;BME280_humidity;BME280_pressure;Samples;Min_cycle;Max_cycle;Signal;HPM_P1;HPM_P2
2021/03/27 00:00:22;;;;;;;9.65;6.70;;;9.00;65.70;;;;;;5073064;28;20051;-75
2021/03/27 00:02:56;;;;;;;9.27;6.45;;;9.00;65.60;;;;;;5066117;28;20040;-77
2021/03/27 00:05:31;;;;;;;13.20;7.00;;;9.00;65.50;;;;;;5073497;28;20039;-76
2021/03/27 00:08:03;;;;;;;10.43;7.15;;;9.10;65.40;;;;;;5073373;28;20032;-76
2021/03/27 00:10:56;;;;;;;8.25;6.38;;;9.10;65.40;;;;;;5073142;28;20037;-74
2021/03/27 00:13:35;;;;;;;8.23;6.65;;;9.10;65.40;;;;;;5073169;28;20115;-77
2021/03/27 00:16:15;;;;;;;9.57;6.13;;;9.00;65.30;;;;;;5072998;28;20040;-74
2021/03/27 00:19:20;;;;;;;9.52;6.18;;;9.00;65.40;;;;;;5072078;28;20060;-75
2021/03/27 00:21:52;;;;;;;7.95;7.05;;;9.00;65.50;;;;;;5059368;28;20143;-78
2021/03/27 00:24:29;;;;;;;9.35;6.47;;;8.90;65.70;;;;;;5073112;28;20109;-75
2021/03/27 00:27:07;;;;;;;7.82;5.35;;;8.90;65.60;;;;;;5071532;28;20365;-74
2021/03/27 00:29:42;;;;;;;8.05;6.00;;;9.00;65.40;;;;;;5072589;28;20032;-76
2021/03/27 00:32:22;;;;;;;6.25;5.20;;;8.90;65.50;;;;;;5073098;28;20048;-76
2021/03/27 00:34:53;;;;;;;8.15;5.57;;;8.80;65.50;;;;;;5082305;28;20039;-75
2021/03/27 00:37:23;;;;;;;6.60;4.93;;;8.90;65.40;;;;;;5074794;28;20037;-72
2021/03/27 00:40:11;;;;;;;7.47;5.50;;;8.90;65.30;;;;;;5072419;28;20032;-74
2021/03/27 00:42:42;;;;;;;9.05;5.78;;;8.90;65.20;;;;;;5088149;28;20437;-71
2021/03/27 00:45:24;;;;;;;6.05;4.97;;;8.90;65.20;;;;;;5072591;28;20047;-78
2021/03/27 00:48:03;;;;;;;5.97;5.05;;;8.90;65.10;;;;;;5071596;28;20079;-81
2021/03/27 00:50:46;;;;;;;6.95;5.15;;;8.90;65.10;;;;;;5071040;28;20083;-75
2021/03/27 00:53:35;;;;;;;8.82;4.90;;;8.90;65.00;;;;;;5054847;28;20493;-74
2021/03/27 00:56:10;;;;;;;7.70;5.03;;;8.90;65.10;;;;;;5047460;28;20131;-75
2021/03/27 00:58:56;;;;;;;5.65;4.40;;;8.90;65.00;;;;;;5087893;28;20061;-75
2021/03/27 01:01:26;;;;;;;7.32;4.97;;;8.90;64.90;;;;;;5071680;28;20524;-74
2021/03/27 01:04:20;;;;;;;5.85;4.65;;;8.90;64.80;;;;;;5063527;28;20040;-77
2021/03/27 01:07:20;;;;;;;6.30;4.53;;;8.80;64.90;;;;;;5070679;28;20036;-78
2021/03/27 01:10:37;;;;;;;6.35;4.82;;;8.80;64.90;;;;;;5038518;28;20068;-76
2021/03/27 01:13:41;;;;;;;6.07;4.47;;;8.80;65.00;;;;;;5070706;28;20047;-78
2021/03/27 01:16:10;;;;;;;6.57;4.93;;;8.80;65.00;;;;;;5071330;28;20036;-79
2021/03/27 01:18:43;;;;;;;6.40;4.95;;;8.80;64.90;;;;;;5055169;28;20131;-77
2021/03/27 01:21:26;;;;;;;7.25;4.50;;;8.80;64.90;;;;;;5071980;28;20500;-78
2021/03/27 01:23:58;;;;;;;5.47;4.38;;;8.70;64.90;;;;;;5072023;28;20037;-80
2021/03/27 01:26:27;;;;;;;4.63;4.05;;;8.80;64.90;;;;;;5070999;28;20029;-76
2021/03/27 01:29:05;;;;;;;5.63;4.82;;;8.80;64.70;;;;;;5072859;28;20051;-77
2021/03/27 01:31:53;;;;;;;5.40;4.45;;;8.80;64.90;;;;;;5077353;28;20036;-77
2021/03/27 01:34:22;;;;;;;5.97;4.57;;;8.80;64.90;;;;;;5080932;28;20040;-75
2021/03/27 01:36:56;;;;;;;6.85;4.18;;;8.70;64.70;;;;;;5085597;28;20519;-76
2021/03/27 01:39:46;;;;;;;5.45;4.43;;;8.80;64.60;;;;;;5075539;28;20113;-75
2021/03/27 01:42:43;;;;;;;5.82;4.90;;;8.70;64.80;;;;;;5075120;28;20048;-77
2021/03/27 01:45:24;;;;;;;;;;;8.70;64.70;;;;;;5076083;28;20036;-74
2021/03/27 01:48:07;;;;;;;7.22;4.55;;;8.80;64.60;;;;;;5075514;28;20007;-74
2021/03/27 01:50:39;;;;;;;6.43;4.15;;;8.70;64.50;;;;;;5075833;28;20032;-74
2021/03/27 01:53:10;;;;;;;7.28;4.60;;;8.70;64.50;;;;;;5075264;28;20052;-75
2021/03/27 01:55:49;;;;;;;6.55;4.45;;;8.70;64.60;;;;;;5075165;28;20131;-73
2021/03/27 01:58:17;;;;;;;6.60;4.57;;;8.60;65.00;;;;;;5075088;28;20059;-76
2021/03/27 02:00:54;;;;;;;5.97;4.25;;;8.60;64.90;;;;;;5075240;28;20075;-74
2021/03/27 02:03:29;;;;;;;4.65;4.15;;;8.60;64.70;;;;;;5074174;28;20037;-79
2021/03/27 02:06:02;;;;;;;4.88;4.35;;;8.60;64.90;;;;;;5075287;28;20051;-77
2021/03/27 02:08:34;;;;;;;5.65;4.35;;;8.70;64.80;;;;;;5075455;28;20046;-76
2021/03/27 02:11:04;;;;;;;8.40;4.80;;;8.60;64.90;;;;;;5073925;28;20043;-76
2021/03/27 02:13:51;;;;;;;7.47;4.53;;;8.60;65.10;;;;;;5073750;28;20067;-78
2021/03/27 02:16:35;;;;;;;5.88;4.53;;;8.60;64.90;;;;;;5073465;28;20086;-77
2021/03/27 02:19:28;;;;;;;7.75;4.70;;;8.60;64.90;;;;;;5075016;28;20575;-76
2021/03/27 02:21:59;;;;;;;4.80;4.05;;;8.60;64.70;;;;;;5090314;28;20048;-76
2021/03/27 02:25:12;;;;;;;7.72;4.28;;;8.60;64.80;;;;;;5056679;28;20029;-80
2021/03/27 02:28:09;;;;;;;6.20;4.28;;;8.60;64.70;;;;;;5074615;28;20052;-76
2021/03/27 02:30:41;;;;;;;7.05;4.72;;;8.60;64.60;;;;;;5074866;28;20044;-78
2021/03/27 02:33:33;;;;;;;4.63;4.13;;;8.60;64.70;;;;;;5073697;28;20040;-81
2021/03/27 02:36:20;;;;;;;6.38;4.28;;;8.60;64.70;;;;;;5078857;28;20033;-76
2021/03/27 02:39:12;;;;;;;7.57;4.60;;;8.60;64.80;;;;;;5079364;28;20389;-75
2021/03/27 02:42:00;;;;;;;6.32;4.57;;;8.50;64.70;;;;;;5074115;28;20037;-77
2021/03/27 02:44:40;;;;;;;5.55;4.25;;;8.50;64.60;;;;;;5074374;28;20071;-75
2021/03/27 02:47:37;;;;;;;6.10;4.32;;;8.50;64.90;;;;;;5074901;28;20032;-76
2021/03/27 02:50:44;;;;;;;5.50;4.05;;;8.50;64.80;;;;;;5074468;28;20036;-74
2021/03/27 02:53:26;;;;;;;5.65;4.05;;;8.50;64.80;;;;;;5065812;28;20086;-78
2021/03/27 02:56:13;;;;;;;6.68;4.80;;;8.50;64.70;;;;;;5074459;28;20070;-75
2021/03/27 02:58:53;;;;;;;6.18;4.60;;;8.40;64.70;;;;;;5072615;28;20087;-76
2021/03/27 03:01:43;;;;;;;5.78;4.10;;;8.40;64.70;;;;;;5074155;28;20052;-73
2021/03/27 03:04:41;;;;;;;6.68;4.00;;;8.40;64.90;;;;;;5073891;28;20035;-75
2021/03/27 03:07:21;;;;;;;5.30;3.90;;;8.40;64.90;;;;;;5074338;28;20048;-73
2021/03/27 03:10:10;;;;;;;5.72;4.47;;;8.30;64.60;;;;;;5073830;28;20492;-76
2021/03/27 03:12:43;;;;;;;6.38;4.05;;;8.30;64.60;;;;;;5064450;28;20109;-76
2021/03/27 03:15:28;;;;;;;6.30;3.80;;;8.40;64.50;;;;;;5074714;28;20042;-78
2021/03/27 03:18:31;;;;;;;6.30;4.45;;;8.40;64.30;;;;;;5074336;28;20036;-73
2021/03/27 03:21:15;;;;;;;5.43;4.05;;;8.40;64.10;;;;;;5072424;28;20076;-75
2021/03/27 03:24:09;;;;;;;4.90;3.78;;;8.40;64.10;;;;;;5075942;28;20047;-78
2021/03/27 03:26:54;;;;;;;5.50;4.25;;;8.30;64.20;;;;;;5082531;28;20116;-75
2021/03/27 03:29:57;;;;;;;6.13;4.38;;;8.30;64.10;;;;;;5072230;28;20062;-76
2021/03/27 03:33:09;;;;;;;5.68;4.03;;;8.30;64.90;;;;;;5089143;28;20044;-76
2021/03/27 03:35:47;;;;;;;5.85;4.05;;;8.40;64.20;;;;;;5022694;28;20045;-75
2021/03/27 03:39:00;;;;;;;6.43;3.88;;;8.30;64.20;;;;;;5089009;28;20115;-77
2021/03/27 03:41:52;;;;;;;4.43;3.70;;;8.40;64.10;;;;;;5039518;28;20135;-76
2021/03/27 03:44:40;;;;;;;5.65;4.38;;;8.40;63.90;;;;;;5073253;28;20445;-74
2021/03/27 03:47:08;;;;;;;6.05;4.50;;;8.30;63.70;;;;;;5073592;28;20546;-75
2021/03/27 03:49:46;;;;;;;6.07;4.22;;;8.20;63.90;;;;;;5072972;28;20036;-78
2021/03/27 03:52:21;;;;;;;5.25;4.15;;;8.30;63.60;;;;;;5072407;28;20457;-74
2021/03/27 03:55:10;;;;;;;4.63;4.20;;;8.20;63.60;;;;;;5072834;28;20032;-77
2021/03/27 03:58:10;;;;;;;6.38;4.20;;;8.30;63.60;;;;;;5072995;28;20067;-77
2021/03/27 04:01:05;;;;;;;4.60;3.70;;;8.40;63.50;;;;;;5072813;28;20413;-78
2021/03/27 04:03:57;;;;;;;5.03;3.90;;;8.40;63.30;;;;;;5082627;28;20050;-78
2021/03/27 04:06:26;;;;;;;6.10;4.05;;;8.40;63.30;;;;;;5060848;28;20039;-77
2021/03/27 04:09:07;;;;;;;5.82;4.13;;;8.40;63.30;;;;;;5092550;28;20439;-76
2021/03/27 04:11:35;;;;;;;5.40;4.00;;;8.40;63.20;;;;;;5091371;28;20028;-77
2021/03/27 04:14:08;;;;;;;7.35;4.45;;;8.30;63.50;;;;;;5089134;28;20044;-78
2021/03/27 04:16:41;;;;;;;5.20;3.95;;;8.40;63.50;;;;;;5092557;28;20048;-77
2021/03/27 04:19:19;;;;;;;5.97;4.30;;;8.40;63.40;;;;;;5090522;28;20035;-77
2021/03/27 04:22:11;;;;;;;6.65;4.40;;;8.30;63.80;;;;;;5090181;28;20040;-77
2021/03/27 04:25:15;;;;;;;5.13;4.10;;;8.30;63.70;;;;;;5060082;28;20128;-80
2021/03/27 04:28:13;;;;;;;5.05;4.00;;;8.40;63.40;;;;;;5088533;28;20039;-78
2021/03/27 04:31:03;;;;;;;5.25;3.83;;;8.50;63.40;;;;;;5091979;28;20079;-77
2021/03/27 04:34:04;;;;;;;7.40;4.93;;;8.50;63.30;;;;;;5090756;28;20392;-78
2021/03/27 04:36:38;;;;;;;6.75;4.20;;;8.50;63.30;;;;;;5087708;28;20442;-85
2021/03/27 04:39:11;;;;;;;5.57;4.78;;;8.60;63.30;;;;;;5083447;28;20040;-77
2021/03/27 04:42:07;;;;;;;8.23;4.68;;;8.60;63.10;;;;;;5072316;28;20044;-76
2021/03/27 04:44:48;;;;;;;7.25;5.05;;;8.70;63.00;;;;;;5087747;28;20024;-76
2021/03/27 04:47:25;;;;;;;8.02;5.07;;;8.60;63.10;;;;;;5072207;28;20041;-75
2021/03/27 04:50:08;;;;;;;7.20;5.22;;;8.70;62.90;;;;;;5071286;28;20093;-75
2021/03/27 04:52:45;;;;;;;7.60;5.30;;;8.60;62.60;;;;;;5072309;28;20041;-74
2021/03/27 04:55:38;;;;;;;7.10;4.88;;;8.80;62.40;;;;;;5072281;28;20036;-74
2021/03/27 04:58:37;;;;;;;6.78;4.60;;;8.80;62.20;;;;;;5074993;28;20060;-77
2021/03/27 05:01:22;;;;;;;5.72;4.72;;;8.90;62.20;;;;;;5085260;28;20028;-77
2021/03/27 05:04:10;;;;;;;8.07;4.90;;;9.00;61.90;;;;;;5085718;28;20051;-76
2021/03/27 05:07:02;;;;;;;6.47;4.75;;;9.10;61.60;;;;;;5076563;28;20037;-75
2021/03/27 05:09:39;;;;;;;9.43;6.10;;;9.10;61.30;;;;;;5063805;28;20100;-73
2021/03/27 05:12:47;;;;;;;7.55;5.57;;;9.10;61.00;;;;;;5085002;28;20434;-76
2021/03/27 05:15:33;;;;;;;9.40;5.95;;;9.10;61.20;;;;;;5068067;28;20109;-77
2021/03/27 05:18:14;;;;;;;7.80;6.18;;;9.20;60.90;;;;;;5074595;28;20135;-76
2021/03/27 05:20:41;;;;;;;8.35;6.03;;;9.30;60.60;;;;;;5075676;28;20094;-77
2021/03/27 05:23:24;;;;;;;9.13;5.88;;;9.40;60.40;;;;;;5075560;28;20049;-75
2021/03/27 05:26:12;;;;;;;9.95;6.60;;;9.60;60.10;;;;;;5081161;28;20032;-75
2021/03/27 05:28:47;;;;;;;8.82;6.68;;;9.60;59.80;;;;;;5078067;28;20044;-74
2021/03/27 05:32:06;;;;;;;10.15;7.20;;;9.70;59.70;;;;;;5084770;28;20047;-71
2021/03/27 05:34:36;;;;;;;15.07;8.63;;;9.90;59.20;;;;;;5011402;28;20034;-69
2021/03/27 05:37:37;;;;;;;14.05;8.85;;;9.80;58.70;;;;;;5086251;28;20043;-72
2021/03/27 05:40:25;;;;;;;12.23;7.95;;;9.90;58.80;;;;;;5094593;28;20051;-71
2021/03/27 05:43:18;;;;;;;14.95;9.20;;;10.10;58.40;;;;;;5093855;28;20048;-69
2021/03/27 05:46:08;;;;;;;15.20;10.10;;;10.20;58.10;;;;;;5087623;28;20040;-70
2021/03/27 05:49:09;;;;;;;15.10;9.77;;;10.20;57.60;;;;;;5076722;28;20040;-68
2021/03/27 05:52:00;;;;;;;16.75;9.23;;;10.30;57.50;;;;;;5090002;28;20404;-70
2021/03/27 05:55:04;;;;;;;18.00;9.93;;;10.20;57.60;;;;;;5073869;28;20037;-67
2021/03/27 05:57:43;;;;;;;15.13;9.10;;;10.20;57.60;;;;;;5078286;28;20114;-71
2021/03/27 06:00:35;;;;;;;14.25;9.05;;;10.20;57.50;;;;;;5081386;28;20040;-68
2021/03/27 06:03:25;;;;;;;14.95;8.57;;;10.20;57.60;;;;;;5079362;28;20134;-68
2021/03/27 06:06:06;;;;;;;15.02;8.90;;;10.10;57.60;;;;;;5075069;28;20103;-68
2021/03/27 06:09:00;;;;;;;16.10;9.13;;;10.20;57.50;;;;;;5085871;28;20127;-69
2021/03/27 06:11:35;;;;;;;16.80;8.88;;;10.20;57.30;;;;;;5075269;28;20097;-69
2021/03/27 06:14:29;;;;;;;13.43;8.35;;;10.10;57.50;;;;;;5074857;28;20036;-73
2021/03/27 06:17:13;;;;;;;15.00;9.13;;;10.20;58.40;;;;;;5073793;28;20075;-76
2021/03/27 06:19:48;;;;;;;15.82;9.32;;;10.40;60.60;;;;;;5075423;28;20032;-79
2021/03/27 06:22:47;;;;;;;19.27;10.77;;;10.60;61.00;;;;;;5075582;28;20037;-77
2021/03/27 06:25:51;;;;;;;20.30;12.02;;;10.70;60.70;;;;;;5030314;28;20159;-73
2021/03/27 06:28:36;;;;;;;24.27;10.73;;;11.00;60.20;;;;;;5074892;28;20033;-81
2021/03/27 06:31:29;;;;;;;17.20;11.93;;;11.30;59.80;;;;;;5083113;28;20047;-71
2021/03/27 06:34:17;;;;;;;16.95;11.57;;;11.50;60.20;;;;;;5085385;28;20460;-70
2021/03/27 06:37:18;;;;;;;19.13;12.35;;;11.50;59.40;;;;;;5094750;28;20036;-84
2021/03/27 06:39:49;;;;;;;20.67;13.10;;;12.10;59.10;;;;;;5094497;28;20043;-76
2021/03/27 06:42:59;;;;;;;22.13;12.68;;;12.60;56.60;;;;;;5094090;28;20484;-77
2021/03/27 06:46:19;;;;;;;20.95;12.73;;;13.00;54.50;;;;;;5083218;28;20082;-81
2021/03/27 06:49:19;;;;;;;20.27;12.50;;;13.30;53.10;;;;;;4992601;28;20133;-77
2021/03/27 06:52:06;;;;;;;21.33;12.95;;;13.60;52.20;;;;;;5082852;28;20071;-77
2021/03/27 06:54:59;;;;;;;19.98;12.68;;;13.90;52.00;;;;;;5094649;28;20043;-72
2021/03/27 06:57:36;;;;;;;19.77;11.23;;;14.10;51.60;;;;;;5092838;28;20060;-78
2021/03/27 07:00:38;;;;;;;19.85;11.20;;;14.40;51.50;;;;;;5090440;28;20068;-74
2021/03/27 07:03:28;;;;;;;23.83;11.15;;;14.70;51.60;;;;;;5057426;28;20060;-73
2021/03/27 07:06:06;;;;;;;20.20;12.18;;;15.00;51.40;;;;;;5093616;28;20040;-72
2021/03/27 07:09:02;;;;;;;14.43;10.45;;;15.30;51.00;;;;;;5082911;28;20032;-80
2021/03/27 07:12:21;;;;;;;18.98;12.07;;;15.60;49.60;;;;;;5094032;28;20047;-76
2021/03/27 07:15:17;;;;;;;18.10;11.88;;;16.00;48.40;;;;;;5031744;28;20073;-76
2021/03/27 07:17:53;;;;;;;22.52;12.13;;;16.30;48.20;;;;;;5093896;28;20040;-77
2021/03/27 07:20:41;;;;;;;19.20;12.05;;;16.50;47.90;;;;;;5093856;28;20492;-74
2021/03/27 07:23:44;;;;;;;20.38;12.20;;;16.90;46.70;;;;;;5093926;28;20095;-74
2021/03/27 07:26:47;;;;;;;23.65;12.10;;;17.10;46.00;;;;;;5093328;28;20071;-74
2021/03/27 07:29:32;;;;;;;21.92;11.45;;;17.30;46.20;;;;;;5089687;28;20044;-72
2021/03/27 07:32:19;;;;;;;15.80;10.85;;;17.50;45.80;;;;;;5088482;28;20064;-70
2021/03/27 07:35:04;;;;;;;14.95;9.07;;;17.70;43.80;;;;;;5084329;28;20032;-66
2021/03/27 07:37:54;;;;;;;17.75;9.65;;;17.90;47.20;;;;;;5076759;28;20048;-70
2021/03/27 07:40:33;;;;;;;23.02;8.35;;;18.20;47.60;;;;;;5082051;28;20510;-69
2021/03/27 07:43:10;;;;;;;13.45;7.85;;;18.60;49.10;;;;;;5093670;28;20408;-73
2021/03/27 07:46:15;;;;;;;18.40;8.88;;;18.90;47.10;;;;;;5093422;28;20500;-73
2021/03/27 07:49:10;;;;;;;23.20;9.20;;;19.10;45.40;;;;;;5089727;28;20052;-73
2021/03/27 07:51:45;;;;;;;17.83;10.07;;;19.10;43.90;;;;;;5093499;28;20127;-73
2021/03/27 07:54:41;;;;;;;19.17;10.38;;;19.10;42.40;;;;;;5093121;28;20090;-74
2021/03/27 07:57:17;;;;;;;17.55;10.35;;;19.10;39.00;;;;;;5093239;28;20048;-70
2021/03/27 08:00:14;;;;;;;16.73;10.40;;;19.10;40.50;;;;;;5082233;28;20036;-71
2021/03/27 08:03:00;;;;;;;20.08;9.73;;;19.00;40.70;;;;;;5073375;28;20440;-70
2021/03/27 08:05:52;;;;;;;20.23;10.77;;;19.00;40.60;;;;;;5072861;28;20086;-74
2021/03/27 08:08:32;;;;;;;17.50;9.43;;;18.90;40.80;;;;;;5084158;28;20041;-73
2021/03/27 08:11:26;;;;;;;21.65;12.13;;;18.90;40.00;;;;;;5092762;28;20040;-72
2021/03/27 08:14:10;;;;;;;20.13;11.88;;;18.90;39.10;;;;;;5091335;28;20549;-73
2021/03/27 08:16:58;;;;;;;20.08;11.05;;;18.80;39.00;;;;;;5092827;28;20054;-74
2021/03/27 08:19:50;;;;;;;20.42;10.32;;;18.80;39.70;;;;;;5092967;28;20028;-76
2021/03/27 08:22:41;;;;;;;18.85;11.48;;;18.80;40.60;;;;;;5092706;28;20036;-74
2021/03/27 08:25:52;;;;;;;24.60;11.38;;;18.70;39.90;;;;;;5092589;28;20032;-76
2021/03/27 08:28:42;;;;;;;16.50;8.77;;;18.70;40.00;;;;;;5092878;28;20036;-76
2021/03/27 08:31:14;;;;;;;17.67;10.93;;;18.70;41.00;;;;;;5093414;28;20457;-77
2021/03/27 08:33:51;;;;;;;15.93;10.15;;;18.70;39.70;;;;;;5090713;28;20040;-79
2021/03/27 08:36:48;;;;;;;17.67;8.93;;;18.70;40.20;;;;;;5065721;28;20106;-75
2021/03/27 08:39:52;;;;;;;13.85;8.40;;;18.80;40.90;;;;;;5073345;28;20535;-72
2021/03/27 08:42:45;;;;;;;16.05;9.23;;;18.90;42.10;;;;;;5075649;28;20039;-71
2021/03/27 08:45:29;;;;;;;16.92;8.60;;;18.90;39.90;;;;;;5076263;28;20020;-71
2021/03/27 08:48:23;;;;;;;18.55;9.88;;;18.90;41.10;;;;;;5076498;28;20127;-71
2021/03/27 08:51:17;;;;;;;15.40;8.65;;;18.90;40.60;;;;;;5076442;28;20411;-72
2021/03/27 08:53:56;;;;;;;17.85;10.07;;;19.00;41.60;;;;;;5075124;28;20189;-71
2021/03/27 08:56:31;;;;;;;14.77;9.00;;;19.10;41.50;;;;;;5075792;28;20036;-71
2021/03/27 08:59:21;;;;;;;12.82;7.53;;;19.20;41.50;;;;;;5075976;28;20584;-72
2021/03/27 09:02:08;;;;;;;18.35;8.65;;;19.20;42.00;;;;;;5075808;28;20036;-72
2021/03/27 09:05:31;;;;;;;13.82;7.95;;;19.30;40.00;;;;;;5076257;28;20051;-71
2021/03/27 09:08:14;;;;;;;15.45;7.93;;;19.10;38.20;;;;;;4997512;28;20048;-70
2021/03/27 09:11:00;;;;;;;16.20;8.65;;;18.90;37.20;;;;;;5013916;28;20042;-72
2021/03/27 09:13:48;;;;;;;15.70;8.73;;;18.60;37.10;;;;;;5066608;28;20048;-73
2021/03/27 09:16:51;;;;;;;14.98;8.18;;;18.40;38.40;;;;;;5075676;28;20465;-72
2021/03/27 09:19:50;;;;;;;13.70;8.00;;;18.30;38.00;;;;;;5075920;28;20040;-71
2021/03/27 09:22:44;;;;;;;16.38;8.45;;;18.30;39.60;;;;;;5075596;28;20525;-71
2021/03/27 09:25:20;;;;;;;13.27;7.72;;;18.20;38.20;;;;;;5075647;28;20565;-72
2021/03/27 09:28:00;;;;;;;12.65;7.65;;;18.10;37.10;;;;;;5075858;28;20075;-71
2021/03/27 09:30:38;;;;;;;18.08;8.65;;;17.90;37.00;;;;;;5075905;28;20043;-73
2021/03/27 09:33:30;;;;;;;13.55;7.72;;;17.60;38.30;;;;;;5075811;28;20048;-73
2021/03/27 09:36:01;;;;;;;13.68;7.63;;;17.50;38.30;;;;;;5075438;28;20564;-72
2021/03/27 09:38:35;;;;;;;14.98;7.88;;;17.40;38.40;;;;;;5075427;28;20374;-72
2021/03/27 09:41:19;;;;;;;17.95;9.00;;;17.30;38.50;;;;;;5075435;28;20500;-71
2021/03/27 09:44:09;;;;;;;21.52;9.20;;;17.20;37.90;;;;;;5075350;28;20090;-73
2021/03/27 09:47:18;;;;;;;14.18;8.40;;;17.00;38.80;;;;;;5075444;28;20393;-72
2021/03/27 09:49:44;;;;;;;17.77;8.32;;;16.80;38.40;;;;;;5075478;28;20041;-72
2021/03/27 09:52:34;;;;;;;14.45;8.35;;;16.70;38.30;;;;;;5075227;28;20043;-73
2021/03/27 09:55:29;;;;;;;14.02;7.82;;;16.40;38.30;;;;;;5075122;28;20071;-73
2021/03/27 09:58:15;;;;;;;15.90;7.70;;;16.30;39.00;;;;;;5075305;28;20131;-71
2021/03/27 10:00:53;;;;;;;17.85;6.80;;;16.20;39.50;;;;;;5073695;28;20493;-72
2021/03/27 10:03:35;;;;;;;10.15;6.25;;;16.20;40.00;;;;;;5075209;28;20117;-72
2021/03/27 10:06:42;;;;;;;17.27;8.10;;;16.10;40.50;;;;;;5074948;28;20405;-74
2021/03/27 10:09:20;;;;;;;15.90;8.32;;;16.10;41.10;;;;;;5054314;28;20100;-72
2021/03/27 10:11:54;;;;;;;14.18;7.97;;;16.00;41.00;;;;;;5075023;28;20093;-71
2021/03/27 10:14:33;;;;;;;13.32;7.28;;;16.00;40.90;;;;;;5074880;28;20111;-72
2021/03/27 10:17:05;;;;;;;14.38;8.43;;;16.00;41.00;;;;;;5073631;28;20051;-72
2021/03/27 10:19:36;;;;;;;15.05;8.73;;;15.90;40.80;;;;;;5074640;28;20047;-74
2021/03/27 10:22:23;;;;;;;14.80;8.25;;;15.80;40.90;;;;;;5075303;28;20056;-72
2021/03/27 10:25:03;;;;;;;12.80;7.30;;;15.80;40.60;;;;;;5074107;28;20574;-72
2021/03/27 10:27:33;;;;;;;14.63;7.15;;;15.80;40.40;;;;;;5073415;28;20056;-75
2021/03/27 10:30:05;;;;;;;12.80;7.22;;;15.80;40.60;;;;;;5074809;28;20530;-78
2021/03/27 10:32:31;;;;;;;11.18;7.70;;;15.80;41.10;;;;;;5076234;28;20029;-76
2021/03/27 10:35:04;;;;;;;13.73;7.78;;;15.70;41.50;;;;;;5075411;28;20039;-76
2021/03/27 10:37:44;;;;;;;13.82;8.15;;;15.60;41.80;;;;;;5073046;28;20119;-68
2021/03/27 10:40:32;;;;;;;18.98;8.52;;;15.60;41.90;;;;;;5074239;28;20045;-71
2021/03/27 10:43:30;;;;;;;17.00;9.30;;;15.60;43.60;;;;;;5073398;28;20070;-74
2021/03/27 10:46:02;;;;;;;14.52;8.38;;;15.60;43.10;;;;;;5074509;28;20033;-76
2021/03/27 10:49:12;;;;;;;14.20;7.53;;;15.60;42.60;;;;;;5074122;28;20036;-80
2021/03/27 10:52:27;;;;;;;13.32;7.28;;;15.50;42.40;;;;;;5073972;28;20428;-71
2021/03/27 10:55:31;;;;;;;15.73;8.25;;;15.50;42.50;;;;;;5072641;28;20067;-74
2021/03/27 10:58:18;;;;;;;13.13;7.68;;;15.40;42.00;;;;;;5073553;28;20150;-70
2021/03/27 11:01:09;;;;;;;15.63;8.45;;;15.40;42.00;;;;;;5073686;28;20035;-71
2021/03/27 11:03:59;;;;;;;12.88;7.25;;;15.40;41.50;;;;;;5073398;28;20528;-71
2021/03/27 11:06:41;;;;;;;14.45;7.70;;;15.40;41.30;;;;;;5055940;28;20039;-72
2021/03/27 11:09:44;;;;;;;12.73;7.13;;;15.30;41.30;;;;;;5073477;28;20534;-71
2021/03/27 11:12:36;;;;;;;12.00;6.40;;;15.20;41.00;;;;;;5072431;28;20417;-78
2021/03/27 11:15:30;;;;;;;14.35;7.60;;;15.10;41.10;;;;;;5073480;28;20445;-71
2021/03/27 11:18:19;;;;;;;15.40;8.02;;;15.10;41.40;;;;;;5073649;28;20045;-72
2021/03/27 11:20:45;;;;;;;12.15;7.47;;;15.10;41.20;;;;;;5072132;28;20653;-71
2021/03/27 11:23:35;;;;;;;15.20;7.38;;;15.10;41.20;;;;;;5073474;28;20074;-78
2021/03/27 11:26:16;;;;;;;11.45;6.07;;;15.10;41.00;;;;;;5073610;28;20067;-75
2021/03/27 11:29:05;;;;;;;10.82;6.80;;;15.10;40.80;;;;;;5073866;28;20029;-76
2021/03/27 11:31:37;;;;;;;12.90;6.25;;;15.00;40.60;;;;;;5061887;28;20072;-68
2021/03/27 11:34:21;;;;;;;15.35;6.75;;;14.90;40.10;;;;;;5072883;28;20389;-71
2021/03/27 11:37:23;;;;;;;10.73;5.70;;;14.80;40.30;;;;;;5073101;28;20051;-70
2021/03/27 11:39:59;;;;;;;10.25;6.07;;;14.70;40.60;;;;;;5072909;28;20043;-70
2021/03/27 11:42:37;;;;;;;10.93;6.43;;;14.70;40.50;;;;;;5073208;28;20044;-73
2021/03/27 11:45:13;;;;;;;10.00;6.28;;;14.60;41.00;;;;;;5073100;28;20048;-74
2021/03/27 11:48:20;;;;;;;10.50;5.90;;;14.60;41.20;;;;;;5073078;28;20032;-74
2021/03/27 11:51:10;;;;;;;11.30;6.28;;;14.50;41.00;;;;;;5089112;28;20041;-73
2021/03/27 11:53:57;;;;;;;14.77;6.72;;;14.50;41.00;;;;;;5073092;28;20068;-69
2021/03/27 11:56:41;;;;;;;10.43;6.15;;;14.50;41.00;;;;;;5088490;28;20036;-72
2021/03/27 12:02:34;;;;;;;10.23;5.95;;;14.50;41.10;;;;;;5072969;28;20497;-71
2021/03/27 12:05:21;;;;;;;14.60;7.40;;;14.50;41.40;;;;;;5072631;28;20079;-70
2021/03/27 12:08:08;;;;;;;11.65;6.68;;;14.40;41.20;;;;;;5078122;28;20424;-70
2021/03/27 12:10:39;;;;;;;11.82;6.05;;;14.40;41.30;;;;;;5080199;28;20040;-71
2021/03/27 12:13:34;;;;;;;9.23;5.03;;;14.40;41.40;;;;;;5081625;28;20048;-71
2021/03/27 12:16:21;;;;;;;10.75;6.30;;;14.30;41.20;;;;;;5092817;28;20059;-69
2021/03/27 12:19:22;;;;;;;8.07;5.15;;;14.30;41.10;;;;;;5093019;28;20063;-72
2021/03/27 12:22:14;;;;;;;9.98;6.30;;;14.30;41.00;;;;;;5060386;28;20055;-75
2021/03/27 12:25:12;;;;;;;8.82;4.85;;;14.30;40.80;;;;;;5091539;28;20398;-71
2021/03/27 12:28:00;;;;;;;11.38;6.03;;;14.30;41.00;;;;;;5092947;28;20039;-70
2021/03/27 12:30:44;;;;;;;8.77;5.10;;;14.20;41.10;;;;;;5092684;28;20087;-71
2021/03/27 12:33:34;;;;;;;10.25;5.45;;;14.20;41.20;;;;;;5083159;28;20044;-70
2021/03/27 12:36:09;;;;;;;9.90;5.50;;;14.10;41.40;;;;;;5072547;28;20400;-73
2021/03/27 12:38:54;;;;;;;9.80;5.80;;;14.10;41.40;;;;;;5072467;28;20067;-73
2021/03/27 12:41:24;;;;;;;8.43;5.13;;;14.00;41.30;;;;;;5072418;28;20178;-73
2021/03/27 12:43:55;;;;;;;8.52;4.80;;;14.00;41.10;;;;;;5071607;28;20044;-72
2021/03/27 12:46:49;;;;;;;7.07;4.75;;;14.00;41.40;;;;;;5072499;28;20040;-72
2021/03/27 12:49:47;;;;;;;6.78;4.35;;;14.00;41.20;;;;;;5075316;28;20036;-73
2021/03/27 12:52:50;;;;;;;9.00;4.43;;;14.10;41.10;;;;;;5079909;28;20041;-71
2021/03/27 12:55:43;;;;;;;8.80;5.03;;;14.10;41.00;;;;;;5072666;28;20044;-72
2021/03/27 12:58:40;;;;;;;7.97;4.50;;;14.20;41.00;;;;;;5071394;28;20143;-72
2021/03/27 13:01:54;;;;;;;7.18;4.72;;;14.20;41.00;;;;;;5081239;28;20035;-74
2021/03/27 13:04:33;;;;;;;7.78;4.78;;;14.30;41.00;;;;;;5086738;28;20393;-70
2021/03/27 13:06:58;;;;;;;8.52;4.18;;;14.30;40.90;;;;;;5092544;28;20118;-71
2021/03/27 13:09:37;;;;;;;9.63;5.00;;;14.30;40.60;;;;;;5092298;28;20174;-72
2021/03/27 13:12:19;;;;;;;8.30;4.75;;;14.30;40.70;;;;;;5090972;28;20028;-71
2021/03/27 13:14:53;;;;;;;8.57;4.53;;;14.40;40.70;;;;;;5092065;28;20047;-71
2021/03/27 13:17:25;;;;;;;10.15;5.03;;;14.40;40.00;;;;;;5091083;28;20036;-70
2021/03/27 13:20:18;;;;;;;5.72;3.97;;;14.40;40.10;;;;;;5090927;28;20500;-70
2021/03/27 13:23:14;;;;;;;6.43;3.85;;;14.40;40.10;;;;;;5082792;28;20040;-71
2021/03/27 13:25:49;;;;;;;8.82;3.80;;;14.50;39.90;;;;;;5065176;28;20497;-72
2021/03/27 13:28:38;;;;;;;6.93;3.40;;;14.50;39.90;;;;;;5074221;28;20041;-73
2021/03/27 13:31:14;;;;;;;6.47;3.33;;;14.50;39.50;;;;;;5075290;28;20051;-74
2021/03/27 13:33:43;;;;;;;4.13;2.50;;;14.50;39.20;;;;;;5064895;28;20048;-72
2021/03/27 13:36:21;;;;;;;4.50;2.50;;;14.60;38.80;;;;;;5093709;28;20118;-72
2021/03/27 13:38:52;;;;;;;5.18;2.30;;;14.50;38.30;;;;;;5094462;28;20043;-74
2021/03/27 13:41:37;;;;;;;5.93;2.42;;;14.50;38.20;;;;;;5094454;28;20039;-71
2021/03/27 13:44:28;;;;;;;3.67;2.35;;;14.50;38.00;;;;;;5095291;28;20044;-70
2021/03/27 13:47:09;;;;;;;4.20;2.50;;;14.50;37.70;;;;;;5094563;28;20032;-70
2021/03/27 13:49:55;;;;;;;6.60;2.83;;;14.50;37.60;;;;;;5094563;28;20601;-71
2021/03/27 13:52:41;;;;;;;6.15;3.35;;;14.50;37.50;;;;;;5095331;28;20028;-70
2021/03/27 13:55:16;;;;;;;6.20;3.22;;;14.40;37.30;;;;;;5095439;28;20040;-71
2021/03/27 13:57:56;;;;;;;5.53;3.00;;;14.40;37.60;;;;;;5093812;28;20508;-70
2021/03/27 14:00:50;;;;;;;7.57;3.75;;;14.40;37.90;;;;;;5093908;28;20043;-70
2021/03/27 14:03:47;;;;;;;6.93;3.35;;;14.40;37.90;;;;;;5061941;28;20047;-70
2021/03/27 14:06:29;;;;;;;5.93;3.40;;;14.30;37.80;;;;;;5085089;28;20036;-70
2021/03/27 14:09:42;;;;;;;6.22;3.40;;;14.30;38.10;;;;;;5076112;28;20032;-71
2021/03/27 14:12:32;;;;;;;5.15;3.00;;;14.20;38.10;;;;;;5088966;28;20060;-69
2021/03/27 14:15:05;;;;;;;5.28;3.10;;;14.20;37.80;;;;;;5078449;28;20056;-69
2021/03/27 14:18:06;;;;;;;6.00;3.15;;;14.10;37.60;;;;;;5054501;28;20045;-71
2021/03/27 14:20:41;;;;;;;5.78;2.72;;;14.10;37.40;;;;;;5089584;28;20044;-70
2021/03/27 14:23:31;;;;;;;5.18;2.78;;;13.90;37.60;;;;;;5074825;28;20059;-70
2021/03/27 14:26:14;;;;;;;5.35;3.35;;;13.80;37.60;;;;;;5073016;28;20033;-71